Terminal Aerodrome Forecast
Issued by NWS Brownsville, TX

Home | Current Version | Previous Version | Text Only | Print | Product List | Glossary On
Versions: 1 2 3 4 5 6 7 8 9 10 11 12 13 14
000
FTUS44 KBRO 191126
TAFMFE
TAF
KMFE 191126Z 1912/2012 VRB03KT P6SM SKC
     FM191400 10007KT P6SM FEW050 SCT250
     FM192100 10012KT P6SM SCT050 SCT250
     FM200200 11003KT P6SM FEW250=

USA.gov is the U.S. government's official web portal to all federal, state and local government web resources and services.